createdAt,value
2019-03-20T00:01:54.208Z,3.20
2019-03-20T00:04:23.970Z,3.20
2019-03-20T00:06:53.626Z,3.20
2019-03-20T00:09:23.972Z,3.30
2019-03-20T00:11:53.340Z,3.30
2019-03-20T00:14:22.674Z,3.20
2019-03-20T00:16:52.369Z,3.20
2019-03-20T00:19:22.636Z,3.20
2019-03-20T00:21:52.733Z,3.20
2019-03-20T00:24:22.149Z,3.20
2019-03-20T00:26:51.478Z,3.20
2019-03-20T00:29:21.178Z,3.10
2019-03-20T00:31:50.610Z,3.10
2019-03-20T00:34:20.241Z,3.10
2019-03-20T00:36:50.200Z,3.10
2019-03-20T00:39:20.260Z,3.10
2019-03-20T00:41:50.342Z,3.00
2019-03-20T00:44:19.667Z,2.90
2019-03-20T00:46:49.388Z,3.00
2019-03-20T00:49:19.249Z,2.90
2019-03-20T00:51:48.931Z,3.00
2019-03-20T00:54:19.086Z,3.00
2019-03-20T00:56:48.819Z,2.90
2019-03-20T00:59:18.930Z,2.80
2019-03-20T01:01:48.707Z,2.90
2019-03-20T01:04:18.707Z,2.80
2019-03-20T01:06:49.489Z,2.90
2019-03-20T01:09:19.161Z,2.80
2019-03-20T01:11:49.148Z,2.90
2019-03-20T01:14:18.879Z,2.90
2019-03-20T01:16:48.842Z,2.80
2019-03-20T01:19:18.525Z,2.80
2019-03-20T01:21:48.330Z,2.80
2019-03-20T01:24:18.095Z,2.80
2019-03-20T01:26:47.449Z,2.80
2019-03-20T01:29:17.489Z,2.80
2019-03-20T01:31:47.109Z,2.80
2019-03-20T01:34:35.858Z,2.80
2019-03-20T01:37:05.478Z,2.80
2019-03-20T01:39:34.906Z,2.70
2019-03-20T01:42:05.006Z,2.70
2019-03-20T01:44:34.446Z,2.70
2019-03-20T01:47:06.651Z,2.70
2019-03-20T01:49:35.617Z,2.70
2019-03-20T01:52:06.048Z,2.60
2019-03-20T01:54:36.110Z,2.70
2019-03-20T01:57:06.170Z,2.70
2019-03-20T01:59:35.988Z,2.80
2019-03-20T02:02:06.674Z,2.80
2019-03-20T02:04:36.807Z,2.70
2019-03-20T02:07:06.554Z,2.70
2019-03-20T02:09:36.878Z,2.70
2019-03-20T02:12:06.856Z,2.70
2019-03-20T02:14:37.040Z,2.70
2019-03-20T02:17:06.436Z,2.70
2019-03-20T02:19:36.478Z,2.70
2019-03-20T02:22:05.845Z,2.60
2019-03-20T02:24:35.266Z,2.50
2019-03-20T02:27:04.877Z,2.50
2019-03-20T02:29:34.891Z,2.50
2019-03-20T02:32:05.199Z,2.50
2019-03-20T02:34:34.892Z,2.40
2019-03-20T02:37:04.994Z,2.40
2019-03-20T02:39:35.307Z,2.40
2019-03-20T02:42:05.414Z,2.40
2019-03-20T02:44:34.820Z,2.30
2019-03-20T02:47:04.295Z,2.20
2019-03-20T02:49:34.314Z,2.20
2019-03-20T02:52:04.280Z,2.20
2019-03-20T02:54:34.106Z,2.20
2019-03-20T02:57:04.212Z,2.20
2019-03-20T02:59:33.636Z,2.30
2019-03-20T03:02:03.415Z,2.30
2019-03-20T03:04:34.408Z,2.30
2019-03-20T03:07:04.848Z,2.40
2019-03-20T03:09:34.506Z,2.40
2019-03-20T03:12:03.910Z,2.30
2019-03-20T03:14:34.063Z,2.30
2019-03-20T03:17:03.773Z,2.30
2019-03-20T03:19:34.265Z,2.40
2019-03-20T03:22:03.674Z,2.30
2019-03-20T03:24:33.084Z,2.20
2019-03-20T03:27:03.142Z,2.20
2019-03-20T03:29:33.144Z,2.20
2019-03-20T03:32:03.111Z,2.20
2019-03-20T03:34:33.151Z,2.10
2019-03-20T03:37:03.288Z,2.20
2019-03-20T03:39:33.394Z,2.20
2019-03-20T03:42:03.755Z,2.20
2019-03-20T03:44:33.829Z,2.20
2019-03-20T03:47:03.528Z,2.20
2019-03-20T03:49:32.950Z,2.20
2019-03-20T03:52:02.557Z,2.20
2019-03-20T03:54:32.166Z,2.20
2019-03-20T03:57:02.347Z,2.10
2019-03-20T03:59:32.517Z,2.00
2019-03-20T04:02:02.480Z,2.10
2019-03-20T04:04:32.325Z,2.10
2019-03-20T04:07:01.760Z,2.00
2019-03-20T04:09:31.518Z,2.00
2019-03-20T04:12:01.254Z,2.00
2019-03-20T04:14:31.005Z,2.00
2019-03-20T04:17:01.147Z,2.00
2019-03-20T04:19:31.521Z,1.90
2019-03-20T04:22:01.847Z,1.80
2019-03-20T04:24:31.865Z,1.80
2019-03-20T04:27:01.617Z,1.80
2019-03-20T04:29:31.749Z,1.80
2019-03-20T04:32:01.506Z,1.80
2019-03-20T04:34:31.200Z,1.80
2019-03-20T04:37:01.713Z,1.80
2019-03-20T04:39:31.765Z,1.80
2019-03-20T04:42:01.791Z,1.90
2019-03-20T04:44:31.114Z,1.80
2019-03-20T04:47:01.201Z,1.90
2019-03-20T04:49:31.189Z,1.90
2019-03-20T04:52:01.546Z,1.90
2019-03-20T04:54:31.570Z,1.90
2019-03-20T04:57:01.405Z,1.80
2019-03-20T04:59:31.397Z,1.80
2019-03-20T05:02:00.877Z,1.80
2019-03-20T05:04:30.893Z,1.80
2019-03-20T05:07:00.659Z,1.90
2019-03-20T05:09:31.049Z,1.90
2019-03-20T05:12:01.079Z,1.90
2019-03-20T05:14:30.410Z,2.00
2019-03-20T05:16:59.750Z,1.90
2019-03-20T05:19:29.157Z,1.90
2019-03-20T05:21:59.262Z,2.00
2019-03-20T05:24:29.318Z,2.00
2019-03-20T05:26:58.932Z,2.10
2019-03-20T05:29:28.267Z,2.10
2019-03-20T05:31:57.643Z,2.10
2019-03-20T05:34:27.249Z,2.20
2019-03-20T05:36:57.238Z,2.10
2019-03-20T05:39:27.571Z,2.10
2019-03-20T05:41:57.806Z,2.20
2019-03-20T05:44:27.702Z,2.20
2019-03-20T05:46:57.337Z,2.20
2019-03-20T05:49:27.366Z,2.30
2019-03-20T05:51:57.080Z,2.40
2019-03-20T05:54:27.173Z,2.40
2019-03-20T05:56:57.141Z,2.40
2019-03-20T05:59:27.277Z,2.50
2019-03-20T06:01:56.649Z,2.60
2019-03-20T06:04:26.330Z,2.60
2019-03-20T06:06:56.050Z,2.70
2019-03-20T06:09:25.377Z,2.70
2019-03-20T06:11:55.554Z,2.70
2019-03-20T06:14:25.616Z,2.80
2019-03-20T06:16:55.432Z,2.90
2019-03-20T06:19:25.181Z,3.00
2019-03-20T06:21:55.034Z,3.00
2019-03-20T06:24:25.448Z,2.90
2019-03-20T06:26:55.169Z,2.90
2019-03-20T06:29:25.185Z,3.00
2019-03-20T06:31:54.534Z,3.20
2019-03-20T06:34:24.381Z,3.20
2019-03-20T06:36:53.706Z,3.30
2019-03-20T06:39:23.364Z,3.30
2019-03-20T06:41:53.430Z,3.50
2019-03-20T06:44:23.498Z,3.50
2019-03-20T06:46:53.408Z,3.60
2019-03-20T06:49:23.250Z,3.70
2019-03-20T06:51:53.607Z,3.70
2019-03-20T06:54:23.334Z,3.80
2019-03-20T06:56:53.193Z,3.90
2019-03-20T07:00:10.047Z,4.10
2019-03-20T07:02:42.102Z,4.20
2019-03-20T07:05:57.653Z,4.30
2019-03-20T07:08:30.557Z,4.30
2019-03-20T07:11:12.373Z,4.40
2019-03-20T07:13:41.760Z,4.40
2019-03-20T07:16:11.144Z,4.50
2019-03-20T07:18:41.772Z,4.40
2019-03-20T07:21:11.726Z,4.50
2019-03-20T07:23:42.258Z,4.60
2019-03-20T07:26:12.461Z,4.70
2019-03-20T07:28:42.452Z,4.80
2019-03-20T07:31:15.559Z,5.00
2019-03-20T07:33:44.894Z,5.00
2019-03-20T07:36:16.804Z,5.10
2019-03-20T07:38:47.107Z,5.10
2019-03-20T07:41:16.621Z,5.00
2019-03-20T07:43:46.295Z,4.90
2019-03-20T07:46:15.959Z,5.00
2019-03-20T07:48:45.807Z,5.00
2019-03-20T07:51:15.604Z,5.00
2019-03-20T07:53:45.492Z,5.00
2019-03-20T07:56:15.288Z,5.00
2019-03-20T07:58:45.320Z,5.10
2019-03-20T08:01:15.383Z,5.20
2019-03-20T08:03:45.218Z,5.30
2019-03-20T08:06:14.912Z,5.50
2019-03-20T08:08:44.345Z,6.10
2019-03-20T08:11:14.021Z,5.80
2019-03-20T08:13:43.806Z,5.60
2019-03-20T08:16:13.794Z,5.80
2019-03-20T08:18:43.933Z,6.10
2019-03-20T08:21:13.465Z,5.90
2019-03-20T08:23:43.292Z,5.80
2019-03-20T08:26:13.379Z,6.00
2019-03-20T08:28:44.061Z,5.90
2019-03-20T08:31:13.679Z,5.90
2019-03-20T08:33:43.828Z,5.90
2019-03-20T08:36:14.090Z,6.20
2019-03-20T08:38:43.729Z,6.30
2019-03-20T08:41:13.814Z,6.40
2019-03-20T08:43:45.626Z,6.40
2019-03-20T08:46:15.378Z,6.30
2019-03-20T08:48:45.539Z,6.40
2019-03-20T08:51:15.649Z,6.30
2019-03-20T08:53:45.055Z,6.40
2019-03-20T08:56:15.022Z,6.60
2019-03-20T08:58:45.248Z,6.50
2019-03-20T09:01:15.297Z,6.40
2019-03-20T09:03:45.377Z,6.30
2019-03-20T09:06:14.761Z,6.60
2019-03-20T09:08:48.777Z,6.40
2019-03-20T09:11:18.632Z,6.10
2019-03-20T09:13:52.537Z,6.50
2019-03-20T09:16:25.013Z,6.40
2019-03-20T09:18:54.398Z,6.70
2019-03-20T09:21:24.201Z,6.60
2019-03-20T09:23:53.998Z,6.60
2019-03-20T09:26:25.937Z,6.70
2019-03-20T09:28:55.673Z,6.70
2019-03-20T09:31:25.504Z,6.80
2019-03-20T09:33:56.124Z,7.10
2019-03-20T09:36:26.222Z,7.10
2019-03-20T09:38:55.890Z,7.10
2019-03-20T09:41:26.160Z,6.90
2019-03-20T09:43:56.107Z,7.00
2019-03-20T09:46:25.951Z,7.20
2019-03-20T09:48:56.265Z,6.80
2019-03-20T09:51:26.534Z,7.00
2019-03-20T09:53:56.608Z,7.30
2019-03-20T09:56:26.086Z,7.40
2019-03-20T09:58:55.817Z,7.40
2019-03-20T10:01:25.198Z,7.50
2019-03-20T10:03:54.667Z,7.60
2019-03-20T10:06:24.679Z,7.60
2019-03-20T10:08:54.663Z,7.60
2019-03-20T10:11:25.021Z,7.50
2019-03-20T10:13:54.769Z,7.60
2019-03-20T10:16:24.426Z,7.80
2019-03-20T10:18:53.764Z,7.40
2019-03-20T10:21:23.445Z,7.40
2019-03-20T10:23:53.931Z,7.40
2019-03-20T10:26:23.678Z,7.40
2019-03-20T10:28:53.210Z,7.80
2019-03-20T10:31:23.078Z,7.70
2019-03-20T10:33:55.351Z,7.50
2019-03-20T10:36:25.562Z,7.30
2019-03-20T10:39:06.599Z,7.40
2019-03-20T10:41:29.896Z,7.60
2019-03-20T10:43:59.922Z,7.80
2019-03-20T10:46:29.752Z,7.90
2019-03-20T10:48:59.826Z,7.70
2019-03-20T10:51:30.381Z,7.70
2019-03-20T10:54:00.055Z,7.50
2019-03-20T10:56:35.923Z,7.60
2019-03-20T10:59:05.422Z,7.50
2019-03-20T11:01:42.448Z,7.50
2019-03-20T11:04:07.145Z,7.30
2019-03-20T11:06:37.489Z,7.50
2019-03-20T11:09:17.811Z,7.60
2019-03-20T11:11:41.126Z,7.50
2019-03-20T11:14:14.400Z,7.50
2019-03-20T11:16:44.354Z,7.50
2019-03-20T11:19:13.753Z,8.00
2019-03-20T11:21:43.731Z,8.20
2019-03-20T11:24:15.304Z,8.20
2019-03-20T11:26:44.816Z,8.60
2019-03-20T11:29:14.669Z,8.30
2019-03-20T11:31:45.770Z,7.90
2019-03-20T11:34:15.564Z,8.40
2019-03-20T11:36:45.161Z,8.50
2019-03-20T11:39:14.942Z,8.70
2019-03-20T11:41:44.345Z,8.80
2019-03-20T11:44:14.615Z,8.90
2019-03-20T11:46:44.719Z,9.10
2019-03-20T11:49:16.020Z,8.50
2019-03-20T11:51:46.113Z,8.40
2019-03-20T11:54:15.495Z,8.20
2019-03-20T11:56:44.942Z,8.20
2019-03-20T11:59:14.691Z,8.40
2019-03-20T12:01:44.330Z,8.60
2019-03-20T12:04:14.330Z,8.50
2019-03-20T12:06:44.899Z,8.50
2019-03-20T12:09:17.776Z,8.60
2019-03-20T12:11:48.357Z,8.50
2019-03-20T12:14:18.215Z,8.60
2019-03-20T12:16:49.711Z,8.60
2019-03-20T12:19:22.378Z,8.40
2019-03-20T12:21:52.178Z,8.30
2019-03-20T12:24:21.980Z,8.50
2019-03-20T12:26:55.845Z,8.50
2019-03-20T12:29:26.593Z,8.50
2019-03-20T12:31:56.082Z,8.40
2019-03-20T12:34:25.911Z,8.50
2019-03-20T12:36:56.706Z,8.30
2019-03-20T12:39:26.274Z,8.50
2019-03-20T12:41:58.135Z,8.60
2019-03-20T12:44:30.211Z,8.50
2019-03-20T12:46:59.342Z,8.40
2019-03-20T12:49:31.182Z,8.40
2019-03-20T12:52:00.697Z,8.70
2019-03-20T12:54:30.360Z,8.90
2019-03-20T12:56:59.789Z,9.00
2019-03-20T12:59:30.086Z,9.20
2019-03-20T13:02:00.102Z,9.20
2019-03-20T13:04:29.933Z,8.70
2019-03-20T13:06:59.382Z,8.80
2019-03-20T13:09:31.551Z,8.80
2019-03-20T13:12:01.334Z,9.10
2019-03-20T13:14:31.664Z,9.10
2019-03-20T13:17:01.466Z,9.30
2019-03-20T13:19:31.585Z,9.20
2019-03-20T13:22:01.482Z,8.90
2019-03-20T13:24:30.926Z,8.80
2019-03-20T13:27:04.830Z,8.80
2019-03-20T13:29:34.593Z,8.50
2019-03-20T13:32:07.426Z,8.60
2019-03-20T13:34:37.179Z,8.70
2019-03-20T13:37:06.929Z,8.90
2019-03-20T13:39:37.029Z,8.80
2019-03-20T13:42:06.989Z,9.10
2019-03-20T13:44:37.343Z,8.90
2019-03-20T13:47:08.486Z,9.10
2019-03-20T13:49:38.414Z,9.30
2019-03-20T13:52:09.164Z,9.10
2019-03-20T13:54:39.100Z,8.90
2019-03-20T13:57:08.908Z,8.80
2019-03-20T13:59:38.680Z,8.80
2019-03-20T14:02:08.022Z,8.90
2019-03-20T14:04:38.685Z,8.90
2019-03-20T14:07:08.436Z,8.90
2019-03-20T14:09:41.319Z,8.90
2019-03-20T14:12:10.776Z,8.80
2019-03-20T14:14:40.508Z,9.00
2019-03-20T14:17:11.272Z,9.10
2019-03-20T14:19:41.114Z,9.00
2019-03-20T14:22:10.761Z,9.00
2019-03-20T14:24:40.477Z,8.80
2019-03-20T14:27:10.289Z,8.90
2019-03-20T14:29:40.061Z,8.80
2019-03-20T14:32:10.582Z,8.90
2019-03-20T14:34:40.325Z,8.80
2019-03-20T14:37:10.107Z,8.80
2019-03-20T14:39:39.727Z,8.80
2019-03-20T14:42:09.971Z,8.90
2019-03-20T14:44:39.732Z,8.90
2019-03-20T14:47:09.498Z,8.70
2019-03-20T14:49:39.858Z,8.90
2019-03-20T14:52:09.554Z,9.00
2019-03-20T14:54:39.333Z,9.00
2019-03-20T14:57:09.573Z,9.00
2019-03-20T14:59:39.953Z,8.80
2019-03-20T15:02:09.754Z,8.70
2019-03-20T15:04:39.690Z,8.70
2019-03-20T15:07:10.693Z,8.70
2019-03-20T15:09:41.033Z,8.80
2019-03-20T15:12:10.369Z,8.90
2019-03-20T15:14:39.734Z,8.90
2019-03-20T15:17:09.466Z,8.90
2019-03-20T15:19:39.569Z,8.90
2019-03-20T15:22:09.690Z,8.90
2019-03-20T15:24:39.309Z,8.80
2019-03-20T15:27:09.101Z,8.80
2019-03-20T15:29:39.406Z,8.80
2019-03-20T15:32:09.397Z,8.90
2019-03-20T15:34:39.181Z,8.80
2019-03-20T15:37:08.964Z,8.90
2019-03-20T15:39:39.057Z,8.90
2019-03-20T15:42:08.534Z,8.90
2019-03-20T15:44:38.623Z,8.90
2019-03-20T15:47:08.102Z,8.70
2019-03-20T15:49:38.298Z,8.80
2019-03-20T15:52:08.336Z,8.80
2019-03-20T15:54:38.949Z,8.60
2019-03-20T15:57:08.836Z,8.70
2019-03-20T15:59:38.323Z,8.70
2019-03-20T16:02:08.037Z,8.70
2019-03-20T16:04:37.567Z,8.60
2019-03-20T16:07:07.656Z,8.60
2019-03-20T16:09:38.790Z,8.50
2019-03-20T16:12:08.637Z,8.60
2019-03-20T16:14:40.148Z,8.50
2019-03-20T16:17:10.065Z,8.40
2019-03-20T16:19:40.148Z,8.40
2019-03-20T16:22:10.306Z,8.40
2019-03-20T16:24:40.654Z,8.40
2019-03-20T16:27:13.560Z,8.40
2019-03-20T16:29:43.581Z,8.70
2019-03-20T16:32:13.766Z,8.60
2019-03-20T16:34:43.592Z,8.50
2019-03-20T16:37:13.484Z,8.40
2019-03-20T16:39:43.296Z,8.20
2019-03-20T16:42:13.629Z,8.20
2019-03-20T16:44:45.069Z,8.10
2019-03-20T16:47:14.473Z,8.10
2019-03-20T16:49:44.233Z,8.10
2019-03-20T16:52:15.623Z,8.00
2019-03-20T16:54:45.181Z,8.00
2019-03-20T16:57:15.273Z,8.00
2019-03-20T16:59:45.394Z,8.00
2019-03-20T17:02:15.233Z,7.90
2019-03-20T17:04:44.712Z,8.00
2019-03-20T17:07:14.770Z,7.90
2019-03-20T17:09:45.291Z,7.90
2019-03-20T17:12:14.717Z,7.80
2019-03-20T17:14:44.302Z,7.80
2019-03-20T17:17:14.737Z,7.80
2019-03-20T17:19:48.856Z,7.80
2019-03-20T17:22:18.744Z,7.80
2019-03-20T17:24:48.954Z,7.80
2019-03-20T17:27:19.028Z,7.80
2019-03-20T17:29:49.165Z,7.80
2019-03-20T17:32:19.207Z,7.80
2019-03-20T17:34:49.237Z,7.80
2019-03-20T17:37:19.322Z,7.80
2019-03-20T17:39:49.273Z,7.70
2019-03-20T17:42:19.165Z,7.80
2019-03-20T17:44:48.961Z,7.80
2019-03-20T17:47:18.381Z,7.60
2019-03-20T17:49:47.756Z,7.50
2019-03-20T17:52:17.519Z,7.50
2019-03-20T17:54:46.882Z,7.70
2019-03-20T17:57:16.286Z,7.60
2019-03-20T17:59:46.337Z,7.50
2019-03-20T18:02:23.726Z,7.50
2019-03-20T18:04:46.758Z,7.50
2019-03-20T18:07:16.430Z,7.60
2019-03-20T18:09:46.590Z,7.50
2019-03-20T18:12:16.642Z,7.50
2019-03-20T18:14:45.977Z,7.40
2019-03-20T18:17:15.647Z,7.40
2019-03-20T18:19:45.022Z,7.60
2019-03-20T18:22:14.529Z,7.50
2019-03-20T18:24:44.898Z,7.50
2019-03-20T18:27:14.241Z,7.50
2019-03-20T18:29:43.614Z,7.60
2019-03-20T18:32:12.956Z,7.60
2019-03-20T18:34:42.607Z,7.50
2019-03-20T18:37:11.997Z,7.60
2019-03-20T18:39:41.990Z,7.50
2019-03-20T18:42:11.755Z,7.40
2019-03-20T18:44:41.567Z,7.50
2019-03-20T18:47:11.483Z,7.40
2019-03-20T18:49:40.936Z,7.40
2019-03-20T18:52:10.373Z,7.30
2019-03-20T18:54:39.781Z,7.30
2019-03-20T18:57:09.458Z,7.20
2019-03-20T18:59:39.116Z,7.10
2019-03-20T19:02:09.117Z,7.10
2019-03-20T19:04:39.193Z,7.00
2019-03-20T19:07:08.845Z,6.90
2019-03-20T19:09:38.926Z,6.80
2019-03-20T19:12:09.199Z,6.90
2019-03-20T19:14:39.099Z,6.90
2019-03-20T19:17:09.245Z,6.90
2019-03-20T19:19:39.739Z,7.00
2019-03-20T19:22:09.651Z,6.90
2019-03-20T19:24:39.693Z,7.00
2019-03-20T19:27:09.482Z,6.90
2019-03-20T19:29:39.985Z,6.80
2019-03-20T19:32:10.029Z,6.80
2019-03-20T19:34:39.470Z,6.70
2019-03-20T19:37:09.261Z,6.70
2019-03-20T19:39:38.650Z,6.70
2019-03-20T19:42:08.355Z,6.70
2019-03-20T19:44:38.070Z,6.70
2019-03-20T19:47:07.865Z,6.70
2019-03-20T19:49:38.002Z,6.70
2019-03-20T19:52:08.025Z,6.70
2019-03-20T19:54:37.434Z,6.80
2019-03-20T19:57:07.965Z,6.80
2019-03-20T19:59:38.142Z,6.90
2019-03-20T20:02:07.503Z,6.80
2019-03-20T20:04:37.286Z,6.70
2019-03-20T20:07:07.032Z,6.80
2019-03-20T20:09:37.232Z,6.70
2019-03-20T20:12:07.051Z,6.70
2019-03-20T20:14:36.939Z,6.70
2019-03-20T20:17:06.357Z,6.80
2019-03-20T20:19:36.174Z,6.70
2019-03-20T20:22:07.011Z,6.70
2019-03-20T20:24:36.460Z,6.70
2019-03-20T20:27:06.533Z,6.70
2019-03-20T20:29:36.662Z,6.70
2019-03-20T20:32:06.316Z,6.70
2019-03-20T20:34:35.985Z,6.70
2019-03-20T20:37:06.814Z,6.70
2019-03-20T20:39:37.182Z,6.70
2019-03-20T20:42:06.536Z,6.70
2019-03-20T20:44:36.305Z,6.80
2019-03-20T20:47:06.055Z,6.80
2019-03-20T20:49:35.849Z,6.80
2019-03-20T20:52:05.602Z,6.80
2019-03-20T20:54:35.266Z,6.90
2019-03-20T20:57:05.008Z,6.80
2019-03-20T20:59:35.429Z,6.80
2019-03-20T21:02:05.149Z,6.90
2019-03-20T21:04:34.841Z,6.90
2019-03-20T21:07:04.577Z,6.90
2019-03-20T21:09:34.918Z,6.90
2019-03-20T21:12:05.054Z,6.90
2019-03-20T21:14:35.103Z,7.00
2019-03-20T21:17:07.065Z,7.00
2019-03-20T21:19:38.894Z,7.10
2019-03-20T21:22:49.426Z,7.00
2019-03-20T21:25:21.945Z,7.10
2019-03-20T21:28:51.266Z,7.20
2019-03-20T21:31:40.515Z,7.20
2019-03-20T21:34:54.308Z,7.30
2019-03-20T21:38:11.526Z,7.30
2019-03-20T21:41:00.207Z,7.40
2019-03-20T21:43:55.089Z,7.50
2019-03-20T21:47:10.201Z,7.40
2019-03-20T21:49:40.437Z,7.50
2019-03-20T21:52:11.497Z,7.50
2019-03-20T21:55:31.059Z,7.50
2019-03-20T21:58:29.281Z,7.60
2019-03-20T22:01:33.969Z,7.60
2019-03-20T22:04:04.622Z,7.60
2019-03-20T22:07:09.311Z,7.70
2019-03-20T22:10:17.979Z,7.70
2019-03-20T22:13:05.813Z,7.80
2019-03-20T22:16:14.711Z,7.80
2019-03-20T22:19:23.997Z,7.80
2019-03-20T22:22:43.638Z,7.80
2019-03-20T22:25:57.462Z,7.80
2019-03-20T22:28:47.773Z,7.80
2019-03-20T22:31:18.533Z,7.70
2019-03-20T22:34:28.339Z,7.70
2019-03-20T22:36:58.251Z,7.80
2019-03-20T22:40:07.991Z,7.70
2019-03-20T22:42:43.630Z,7.80
2019-03-20T22:46:07.891Z,7.70
2019-03-20T22:49:13.296Z,7.70
2019-03-20T22:52:11.259Z,7.70
2019-03-20T22:55:14.912Z,7.80
2019-03-20T22:58:13.068Z,7.70
2019-03-20T23:00:43.201Z,7.70
2019-03-20T23:03:21.796Z,7.70
2019-03-20T23:05:51.694Z,7.80
2019-03-20T23:08:22.736Z,7.80
2019-03-20T23:10:53.173Z,7.80
2019-03-20T23:13:23.713Z,7.80
2019-03-20T23:15:54.147Z,7.80
2019-03-20T23:18:24.033Z,7.80
2019-03-20T23:20:55.812Z,7.90
2019-03-20T23:23:26.065Z,7.80
2019-03-20T23:25:55.997Z,7.80
2019-03-20T23:28:27.117Z,7.80
2019-03-20T23:30:58.058Z,7.90
2019-03-20T23:33:28.825Z,7.90
2019-03-20T23:35:59.685Z,7.90
2019-03-20T23:38:30.228Z,7.90
2019-03-20T23:41:00.886Z,7.90
2019-03-20T23:43:31.547Z,7.90
2019-03-20T23:46:01.878Z,8.00
2019-03-20T23:48:44.930Z,8.00
2019-03-20T23:51:17.413Z,8.00
2019-03-20T23:53:51.330Z,8.10
2019-03-20T23:56:21.810Z,8.00
2019-03-20T23:58:52.332Z,8.10
